METAR
METAR

METAR

METAR EPSY 081200Z 20003KT 130V280 CAVOK 30/15 Q1022=
TAF EPSY 081130Z 0812/0821 VRB03KT CAVOK=
Ostrzeżenia
Ostrzeżenia

Ostrzeżenia

OSTRZEZENIE LOTNISKOWE DLA LOTNISKA SZYMANY WAZNOSC OD: 11:00 08-08-2020 UTC DO: 16:00 08-08-2020 UTC ZJAWISKO: UPAL PRZEBIEG: NA LOTNISKU EPSY ORAZ W JEGO REJONIE PROGNOZUJE SIE WZROST TEMPERATURY POWIETRZA W GRANICACH 30-31ST. OPRACOWAL: P. KONDRACKI DNIA 08-08-2020 10:45UTC NR OSTRZEZENIA: 204/2020.